createdAt,value
2022-11-08T00:04:34.902Z,100272.20
2022-11-08T00:09:57.558Z,100274.20
2022-11-08T00:15:01.799Z,100277.20
2022-11-08T00:20:06.340Z,100273.80
2022-11-08T00:25:11.325Z,100277.60
2022-11-08T00:30:14.475Z,100275.00
2022-11-08T00:35:17.526Z,100272.80
2022-11-08T00:40:20.486Z,100281.00
2022-11-08T00:45:23.590Z,100289.60
2022-11-08T00:50:26.694Z,100288.20
2022-11-08T00:55:29.706Z,100295.60
2022-11-08T01:00:32.810Z,100289.40
2022-11-08T01:05:38.475Z,100286.00
2022-11-08T01:10:43.995Z,100275.20
2022-11-08T01:15:47.726Z,100278.80
2022-11-08T01:20:51.313Z,100274.00
2022-11-08T01:25:54.383Z,100274.80
2022-11-08T01:30:57.495Z,100270.40
2022-11-08T01:36:00.799Z,100262.80
2022-11-08T01:41:05.539Z,100269.60
2022-11-08T01:46:33.854Z,100266.20
2022-11-08T01:51:54.672Z,100265.80
2022-11-08T01:57:01.693Z,100262.80
2022-11-08T02:02:05.869Z,100254.40
2022-11-08T02:07:12.294Z,100253.20
2022-11-08T02:12:20.565Z,100245.20
2022-11-08T02:17:23.601Z,100238.00
2022-11-08T02:22:39.351Z,100234.20
2022-11-08T02:27:42.615Z,100243.60
2022-11-08T02:32:47.386Z,100235.20
2022-11-08T02:37:51.182Z,100242.60
2022-11-08T02:42:54.197Z,100247.80
2022-11-08T02:47:57.397Z,100246.20
2022-11-08T02:53:01.013Z,100249.00
2022-11-08T02:58:04.907Z,100246.80
2022-11-08T03:03:08.248Z,100240.00
2022-11-08T03:08:11.360Z,100236.20
2022-11-08T03:13:14.466Z,100249.20
2022-11-08T03:18:17.928Z,100248.40
2022-11-08T03:23:21.318Z,100258.60
2022-11-08T03:28:24.729Z,100265.00
2022-11-08T03:33:28.225Z,100252.40
2022-11-08T03:38:31.330Z,100260.00
2022-11-08T03:43:34.428Z,100269.60
2022-11-08T03:48:37.458Z,100269.20
2022-11-08T03:53:40.548Z,100273.00
2022-11-08T03:58:43.549Z,100263.00
2022-11-08T04:03:46.546Z,100271.00
2022-11-08T04:08:49.653Z,100262.60
2022-11-08T04:14:11.500Z,100259.60
2022-11-08T04:19:36.006Z,100258.00
2022-11-08T04:24:39.135Z,100255.80
2022-11-08T04:29:42.232Z,100264.00
2022-11-08T04:34:45.329Z,100258.40
2022-11-08T04:39:50.317Z,100258.00
2022-11-08T04:44:53.637Z,100260.80
2022-11-08T04:49:56.687Z,100260.60
2022-11-08T04:54:59.715Z,100269.80
2022-11-08T05:00:02.904Z,100266.40
2022-11-08T05:05:07.501Z,100264.80
2022-11-08T05:10:10.684Z,100271.60
2022-11-08T05:15:13.754Z,100270.00
2022-11-08T05:20:35.805Z,100268.80
2022-11-08T05:25:40.428Z,100268.00
2022-11-08T05:30:43.863Z,100270.00
2022-11-08T05:35:46.971Z,100271.60
2022-11-08T05:40:49.974Z,100277.20
2022-11-08T05:45:53.089Z,100275.80
2022-11-08T05:50:57.108Z,100278.80
2022-11-08T05:56:03.140Z,100285.60
2022-11-08T06:01:13.865Z,100295.00
2022-11-08T06:06:20.697Z,100294.60
2022-11-08T06:11:27.410Z,100295.40
2022-11-08T06:16:30.343Z,100304.40
2022-11-08T06:21:33.662Z,100308.40
2022-11-08T06:26:36.915Z,100308.80
2022-11-08T06:31:43.037Z,100322.40
2022-11-08T06:36:46.666Z,100327.20
2022-11-08T06:41:49.875Z,100315.40
2022-11-08T06:46:56.157Z,100321.80
2022-11-08T06:51:59.677Z,100326.20
2022-11-08T06:57:03.085Z,100316.20
2022-11-08T07:02:07.088Z,100312.40
2022-11-08T07:07:10.320Z,100316.40
2022-11-08T07:12:13.548Z,100318.00
2022-11-08T07:17:16.842Z,100313.20
2022-11-08T07:22:19.944Z,100326.20
2022-11-08T07:27:23.709Z,100330.00
2022-11-08T07:32:26.885Z,100337.20
2022-11-08T07:37:30.427Z,100331.80
2022-11-08T07:43:05.144Z,100327.00
2022-11-08T07:48:11.864Z,100324.40
2022-11-08T07:53:16.145Z,100320.80
2022-11-08T07:58:19.578Z,100325.00
2022-11-08T08:03:23.489Z,100316.20
2022-11-08T08:08:27.135Z,100320.80
2022-11-08T08:13:30.334Z,100329.00
2022-11-08T08:18:33.575Z,100324.60
2022-11-08T08:23:36.750Z,100319.00
2022-11-08T08:28:39.862Z,100319.60
2022-11-08T08:33:43.688Z,100318.20
2022-11-08T08:38:46.786Z,100325.80
2022-11-08T08:43:50.123Z,100327.00
2022-11-08T08:48:54.021Z,100328.00
2022-11-08T08:53:58.668Z,100320.60
2022-11-08T09:04:24.845Z,100315.00
2022-11-08T09:09:28.255Z,100323.00
2022-11-08T09:14:31.483Z,100324.60
2022-11-08T09:19:34.680Z,100319.40
2022-11-08T09:24:38.596Z,100322.80
2022-11-08T09:29:41.735Z,100330.40
2022-11-08T09:34:45.525Z,100333.80
2022-11-08T09:39:48.840Z,100333.40
2022-11-08T09:45:13.045Z,100326.60
2022-11-08T09:50:39.189Z,100324.20
2022-11-08T09:56:06.457Z,100323.40
2022-11-08T10:01:14.551Z,100323.40
2022-11-08T10:06:44.028Z,100321.80
2022-11-08T10:12:37.088Z,100320.60
2022-11-08T10:18:11.725Z,100316.60
2022-11-08T10:23:57.538Z,100318.20
2022-11-08T10:29:20.104Z,100312.80
2022-11-08T10:34:29.325Z,100314.00
2022-11-08T10:39:45.052Z,100312.40
2022-11-08T10:44:48.261Z,100307.00
2022-11-08T10:49:52.490Z,100304.20
2022-11-08T10:54:59.180Z,100305.60
2022-11-08T11:00:23.689Z,100301.20
2022-11-08T11:05:31.854Z,100293.00
2022-11-08T11:10:47.788Z,100289.40
2022-11-08T11:16:00.473Z,100289.20
2022-11-08T11:21:15.239Z,100287.20
2022-11-08T11:26:18.438Z,100287.40
2022-11-08T11:31:21.547Z,100290.60
2022-11-08T11:36:30.527Z,100282.40
2022-11-08T11:41:49.462Z,100279.40
2022-11-08T11:47:02.813Z,100281.60
2022-11-08T11:52:17.627Z,100275.40
2022-11-08T11:57:41.516Z,100275.40
2022-11-08T12:03:15.917Z,100271.80
2022-11-08T12:08:36.030Z,100273.20
2022-11-08T12:14:09.361Z,100269.20
2022-11-08T12:19:24.739Z,100264.20
2022-11-08T12:24:39.213Z,100261.60
2022-11-08T12:29:51.559Z,100255.40
2022-11-08T12:35:43.424Z,100259.40
2022-11-08T12:41:11.917Z,100255.60
2022-11-08T12:46:20.533Z,100256.40
2022-11-08T12:51:57.542Z,100246.60
2022-11-08T12:57:09.226Z,100262.40
2022-11-08T13:02:24.979Z,100259.00
2022-11-08T13:07:56.093Z,100264.80
2022-11-08T13:13:36.203Z,100267.00
2022-11-08T13:18:49.725Z,100273.20
2022-11-08T13:24:38.428Z,100277.00
2022-11-08T13:29:38.891Z,100279.80
2022-11-08T13:34:49.517Z,100281.40
2022-11-08T13:40:27.254Z,100276.20
2022-11-08T13:45:34.828Z,100275.40
2022-11-08T13:51:19.150Z,100280.00
2022-11-08T13:56:56.325Z,100270.60
2022-11-08T14:01:59.772Z,100274.60
2022-11-08T14:07:06.233Z,100271.40
2022-11-08T14:12:20.903Z,100267.80
2022-11-08T14:17:52.986Z,100272.40
2022-11-08T14:23:00.554Z,100270.80
2022-11-08T14:28:05.033Z,100269.40
2022-11-08T14:33:21.741Z,100270.20
2022-11-08T14:38:28.240Z,100272.00
2022-11-08T14:43:42.870Z,100280.40
2022-11-08T14:48:54.383Z,100278.00
2022-11-08T14:53:57.794Z,100283.00
2022-11-08T14:59:07.001Z,100278.00
2022-11-08T15:04:21.188Z,100282.60
2022-11-08T15:09:33.470Z,100278.80
2022-11-08T15:14:55.731Z,100267.40
2022-11-08T15:20:21.768Z,100273.40
2022-11-08T15:25:36.023Z,100273.80
2022-11-08T15:30:43.335Z,100280.80
2022-11-08T15:35:47.783Z,100276.40
2022-11-08T15:40:54.783Z,100270.20
2022-11-08T15:46:03.075Z,100264.20
2022-11-08T15:51:06.421Z,100269.00
2022-11-08T15:56:12.593Z,100268.60
2022-11-08T16:01:23.289Z,100271.80
2022-11-08T16:06:26.618Z,100273.20
2022-11-08T16:11:32.971Z,100273.40
2022-11-08T16:16:37.019Z,100276.00
2022-11-08T16:21:40.230Z,100280.80
2022-11-08T16:26:45.811Z,100287.80
2022-11-08T16:31:51.152Z,100288.00
2022-11-08T16:36:54.962Z,100291.80
2022-11-08T16:41:58.526Z,100295.80
2022-11-08T16:47:01.798Z,100300.20
2022-11-08T16:52:05.118Z,100295.20
2022-11-08T16:57:28.949Z,100298.20
2022-11-08T17:02:35.743Z,100296.20
2022-11-08T17:07:39.138Z,100297.40
2022-11-08T17:12:42.203Z,100294.80
2022-11-08T17:17:46.408Z,100297.60
2022-11-08T17:22:49.860Z,100297.60
2022-11-08T17:27:53.266Z,100305.00
2022-11-08T17:32:56.571Z,100301.00
2022-11-08T17:38:00.030Z,100296.40
2022-11-08T17:43:03.342Z,100283.80
2022-11-08T17:48:07.022Z,100283.20
2022-11-08T17:53:10.329Z,100287.00
2022-11-08T17:58:13.536Z,100279.40
2022-11-08T18:03:17.136Z,100281.60
2022-11-08T18:08:26.514Z,100288.40
2022-11-08T18:13:31.453Z,100282.60
2022-11-08T18:18:34.868Z,100287.40
2022-11-08T18:23:41.969Z,100289.80
2022-11-08T18:28:45.487Z,100284.60
2022-11-08T18:33:49.841Z,100280.40
2022-11-08T18:38:53.749Z,100279.40
2022-11-08T18:44:00.027Z,100284.60
2022-11-08T18:49:05.387Z,100272.00
2022-11-08T18:54:08.597Z,100268.40
2022-11-08T18:59:11.742Z,100269.80
2022-11-08T19:04:15.023Z,100272.00
2022-11-08T19:09:19.460Z,100271.40
2022-11-08T19:14:23.072Z,100276.20
2022-11-08T19:19:26.277Z,100274.20
2022-11-08T19:24:29.385Z,100276.40
2022-11-08T19:29:32.596Z,100274.80
2022-11-08T19:34:37.034Z,100276.20
2022-11-08T19:39:40.236Z,100272.40
2022-11-08T19:44:43.340Z,100280.40
2022-11-08T19:49:46.449Z,100286.20
2022-11-08T19:54:50.482Z,100283.00
2022-11-08T19:59:53.582Z,100278.60
2022-11-08T20:04:56.791Z,100276.40
2022-11-08T20:10:00.334Z,100274.20
2022-11-08T20:15:04.342Z,100279.80
2022-11-08T20:20:08.887Z,100273.20
2022-11-08T20:25:12.091Z,100268.20
2022-11-08T20:30:15.503Z,100270.60
2022-11-08T20:35:22.967Z,100266.40
2022-11-08T20:40:26.824Z,100268.80
2022-11-08T20:45:30.443Z,100273.80
2022-11-08T20:50:36.527Z,100269.80
2022-11-08T20:55:39.744Z,100269.00
2022-11-08T21:01:02.601Z,100260.20
2022-11-08T21:06:09.242Z,100259.40
2022-11-08T21:11:15.807Z,100261.00
2022-11-08T21:16:29.978Z,100266.40
2022-11-08T21:21:34.689Z,100267.40
2022-11-08T21:26:37.790Z,100257.20
2022-11-08T21:31:40.999Z,100257.80
2022-11-08T21:36:44.002Z,100260.20
2022-11-08T21:41:47.107Z,100261.80
2022-11-08T21:46:50.520Z,100259.40
2022-11-08T21:51:53.727Z,100254.00
2022-11-08T21:56:56.851Z,100256.80
2022-11-08T22:02:00.454Z,100255.80
2022-11-08T22:07:03.781Z,100253.00
2022-11-08T22:12:07.287Z,100250.00
2022-11-08T22:17:10.498Z,100245.80
2022-11-08T22:22:14.121Z,100239.60
2022-11-08T22:27:17.622Z,100233.40
2022-11-08T22:32:20.631Z,100222.80
2022-11-08T22:37:23.658Z,100219.60
2022-11-08T22:42:26.745Z,100219.60
2022-11-08T22:47:29.757Z,100214.80
2022-11-08T22:52:32.751Z,100203.00
2022-11-08T22:57:35.852Z,100205.40
2022-11-08T23:02:38.956Z,100208.00
2022-11-08T23:07:42.063Z,100203.80
2022-11-08T23:13:03.707Z,100200.20
2022-11-08T23:18:06.817Z,100199.20
2022-11-08T23:23:29.380Z,100201.20
2022-11-08T23:28:51.215Z,100193.20
2022-11-08T23:33:54.324Z,100192.20
2022-11-08T23:38:58.967Z,100191.00
2022-11-08T23:44:20.811Z,100185.60
2022-11-08T23:49:24.122Z,100183.60
2022-11-08T23:54:27.227Z,100180.00
2022-11-08T23:59:30.332Z,100179.60
